KLNA

Palm Beach County Park Airport

West Palm Beach, Florida, USA
METAR KLNA 271155Z AUTO 14014G25KT BKN015 OVC020 24/23 A2982 RMK AO2 LTG DSNT E THRU S T02430227 10256 20225 PWINO
Observed Flight Rules
May-27 @ 11:55 UTC (10 minutes ago)
Wind Clouds
140° at 14 knots
 Gusting to 25 knots
  • Broken at 1,500' AGL
  • Overcast at 2,000' AGL
Temperatures Readings
Current 24°C / 75°F
Dewpoint 23°C / 73°F
Humidity 94%
Altimeter 29.82" Hg
Pressure 1010 hPa
Elevation 11
METAR KLNA 271155Z AUTO 14014G25KT BKN015 OVC020 24/23 A2982 RMK AO2 LTG DSNT E THRU S T02430227 10256 20225 PWINO
Observed Flight Rules
May-27 @ 11:55 UTC
(10 minutes ago)
Wind
140° at 14 knots
 Gusting to 25 knots
Clouds
  • Broken at 1,500' AGL
  • Overcast at 2,000' AGL
Temperature Dewpoint
24°C / 75°F 23°C / 73°F
Humidity Altimeter Pressure
94% 29.82" Hg 1010 hPa